AIR250 EBAW-LEBL
Flight info
| Callsign | AIR250 |
|---|---|
| Flight time | 1h 54m |
| Altitude | 36000 |
| Route | GILOM REMGO MMD GELTA OSKIN MOU SULOT MEN J27 PPG ALBER |
| Aircraft | A20N/M-SDE2E3FGHIRWXY/LB1 |
Departure
| Time | 2026-04-15 09:35 |
|---|---|
| Airport | Antwerp International Airport (Deurne) (EBAW) |
Arrival
| Time | 2026-04-15 11:30 |
|---|---|
| Airport | Josep Tarradellas Barcelona-El Prat Airport (LEBL) |
| Time | Latitude | Longitude | Altitude | Speed | Heading |
|---|---|---|---|---|---|
| 2026-04-15 09:14 | 51.18847 | 4.45288 | 38 ft | 0 kts | 326° |
| 2026-04-15 09:30 | 51.18852 | 4.45286 | 36 ft | 2 kts | 345° |
| 2026-04-15 09:30 | 51.18872 | 4.45307 | 38 ft | 6 kts | 53° |
| 2026-04-15 09:30 | 51.18901 | 4.45391 | 38 ft | 10 kts | 36° |
| 2026-04-15 09:30 | 51.18965 | 4.45421 | 36 ft | 11 kts | 43° |
| 2026-04-15 09:31 | 51.19022 | 4.45507 | 38 ft | 11 kts | 10° |
| 2026-04-15 09:31 | 51.19072 | 4.45464 | 38 ft | 0 kts | 319° |
| 2026-04-15 09:31 | 51.19074 | 4.45461 | 38 ft | 0 kts | 319° |
| 2026-04-15 09:32 | 51.19076 | 4.45458 | 38 ft | 2 kts | 319° |
| 2026-04-15 09:32 | 51.19092 | 4.45436 | 38 ft | 5 kts | 319° |
| 2026-04-15 09:32 | 51.19126 | 4.45396 | 38 ft | 7 kts | 324° |
| 2026-04-15 09:33 | 51.19174 | 4.45340 | 40 ft | 9 kts | 324° |
| 2026-04-15 09:33 | 51.19210 | 4.45354 | 39 ft | 5 kts | 58° |
| 2026-04-15 09:33 | 51.19206 | 4.45401 | 41 ft | 0 kts | 109° |
| 2026-04-15 09:34 | 51.19168 | 4.45569 | 39 ft | 52 kts | 109° |
| 2026-04-15 09:35 | 51.18950 | 4.46523 | 45 ft | 127 kts | 109° |
| 2026-04-15 09:35 | 51.18589 | 4.48099 | 309 ft | 164 kts | 114° |
| 2026-04-15 09:35 | 51.18219 | 4.49931 | 1008 ft | 182 kts | 111° |
| 2026-04-15 09:35 | 51.17845 | 4.51978 | 1666 ft | 203 kts | 110° |
| 2026-04-15 09:36 | 51.17481 | 4.54217 | 2302 ft | 220 kts | 109° |
| 2026-04-15 09:36 | 51.17118 | 4.56677 | 2947 ft | 235 kts | 107° |
| 2026-04-15 09:36 | 51.16758 | 4.59311 | 3576 ft | 253 kts | 105° |
| 2026-04-15 09:36 | 51.16378 | 4.62117 | 3916 ft | 261 kts | 105° |
| 2026-04-15 09:37 | 51.15905 | 4.64936 | 4068 ft | 265 kts | 113° |
| 2026-04-15 09:37 | 51.15228 | 4.67652 | 4430 ft | 263 kts | 115° |
| 2026-04-15 09:37 | 51.14554 | 4.70370 | 5251 ft | 265 kts | 113° |
| 2026-04-15 09:37 | 51.13937 | 4.73147 | 6187 ft | 268 kts | 112° |
| 2026-04-15 09:38 | 51.13357 | 4.76013 | 6640 ft | 278 kts | 110° |
| 2026-04-15 09:38 | 51.12792 | 4.78968 | 6253 ft | 278 kts | 111° |
| 2026-04-15 09:38 | 51.11861 | 4.81517 | 6297 ft | 260 kts | 137° |
| 2026-04-15 09:38 | 51.10364 | 4.83157 | 6551 ft | 263 kts | 161° |
| 2026-04-15 09:39 | 51.08579 | 4.83603 | 6802 ft | 264 kts | 185° |
| 2026-04-15 09:39 | 51.06747 | 4.83282 | 7057 ft | 268 kts | 187° |
| 2026-04-15 09:39 | 51.04881 | 4.82923 | 7776 ft | 270 kts | 187° |
| 2026-04-15 09:39 | 51.03031 | 4.82571 | 8828 ft | 268 kts | 188° |
| 2026-04-15 09:40 | 51.01154 | 4.82217 | 9571 ft | 277 kts | 188° |
| 2026-04-15 09:40 | 50.99227 | 4.81859 | 10438 ft | 278 kts | 188° |
| 2026-04-15 09:40 | 50.97282 | 4.81498 | 11215 ft | 284 kts | 188° |
| 2026-04-15 09:40 | 50.95303 | 4.81130 | 11943 ft | 289 kts | 188° |
| 2026-04-15 09:41 | 50.93318 | 4.80762 | 12715 ft | 292 kts | 189° |
| 2026-04-15 09:41 | 50.91279 | 4.80384 | 13441 ft | 298 kts | 188° |
| 2026-04-15 09:41 | 50.89207 | 4.79999 | 14171 ft | 302 kts | 188° |
| 2026-04-15 09:41 | 50.87109 | 4.79613 | 14883 ft | 304 kts | 189° |
| 2026-04-15 09:42 | 50.84988 | 4.79220 | 15523 ft | 309 kts | 189° |
| 2026-04-15 09:42 | 50.82844 | 4.78825 | 16217 ft | 312 kts | 189° |
| 2026-04-15 09:42 | 50.80673 | 4.78423 | 16837 ft | 317 kts | 189° |
| 2026-04-15 09:42 | 50.78472 | 4.78016 | 17484 ft | 320 kts | 189° |
| 2026-04-15 09:43 | 50.76243 | 4.77604 | 18113 ft | 325 kts | 189° |
| 2026-04-15 09:43 | 50.73992 | 4.77094 | 18723 ft | 327 kts | 192° |
| 2026-04-15 09:43 | 50.71743 | 4.76475 | 19298 ft | 330 kts | 192° |
| 2026-04-15 09:43 | 50.69472 | 4.75853 | 19858 ft | 333 kts | 192° |
| 2026-04-15 09:44 | 50.67182 | 4.75227 | 20415 ft | 336 kts | 192° |
| 2026-04-15 09:44 | 50.64866 | 4.74593 | 20953 ft | 339 kts | 192° |
| 2026-04-15 09:44 | 50.62527 | 4.73953 | 21487 ft | 343 kts | 192° |
| 2026-04-15 09:44 | 50.60163 | 4.73308 | 22032 ft | 346 kts | 192° |
| 2026-04-15 09:45 | 50.57781 | 4.72659 | 22574 ft | 349 kts | 192° |
| 2026-04-15 09:45 | 50.55382 | 4.72006 | 23096 ft | 352 kts | 192° |
| 2026-04-15 09:45 | 50.52955 | 4.71345 | 23587 ft | 356 kts | 192° |
| 2026-04-15 09:45 | 50.50539 | 4.70688 | 24042 ft | 358 kts | 192° |
| 2026-04-15 09:46 | 50.48075 | 4.70019 | 24473 ft | 361 kts | 192° |
| 2026-04-15 09:46 | 50.45592 | 4.69346 | 24909 ft | 363 kts | 192° |
| 2026-04-15 09:46 | 50.43094 | 4.68670 | 25336 ft | 366 kts | 192° |
| 2026-04-15 09:46 | 50.40577 | 4.67988 | 25747 ft | 368 kts | 192° |
| 2026-04-15 09:47 | 50.38041 | 4.67302 | 26152 ft | 371 kts | 192° |
| 2026-04-15 09:47 | 50.35487 | 4.66612 | 26546 ft | 374 kts | 192° |
| 2026-04-15 09:47 | 50.32917 | 4.65918 | 26941 ft | 376 kts | 192° |
| 2026-04-15 09:47 | 50.30324 | 4.65219 | 27272 ft | 380 kts | 192° |
| 2026-04-15 09:48 | 50.27714 | 4.64517 | 27659 ft | 382 kts | 192° |
| 2026-04-15 09:48 | 50.25975 | 4.64049 | 27910 ft | 383 kts | 192° |
| 2026-04-15 09:48 | 50.23338 | 4.63342 | 28278 ft | 386 kts | 192° |
| 2026-04-15 09:48 | 50.20683 | 4.62630 | 28631 ft | 388 kts | 192° |
| 2026-04-15 09:49 | 50.18007 | 4.61913 | 28978 ft | 391 kts | 192° |
| 2026-04-15 09:49 | 50.15316 | 4.61193 | 29317 ft | 393 kts | 192° |
| 2026-04-15 09:49 | 50.12610 | 4.60470 | 29655 ft | 395 kts | 192° |
| 2026-04-15 09:49 | 50.09887 | 4.59743 | 29969 ft | 398 kts | 192° |
| 2026-04-15 09:50 | 50.07146 | 4.59011 | 30254 ft | 401 kts | 192° |
| 2026-04-15 09:50 | 50.04384 | 4.58276 | 30542 ft | 403 kts | 192° |
| 2026-04-15 09:50 | 50.01642 | 4.57547 | 30804 ft | 406 kts | 193° |
| 2026-04-15 09:50 | 49.98854 | 4.56806 | 31131 ft | 406 kts | 193° |
| 2026-04-15 09:51 | 49.96071 | 4.56068 | 31497 ft | 405 kts | 193° |
| 2026-04-15 09:51 | 49.93294 | 4.55333 | 31870 ft | 404 kts | 193° |
| 2026-04-15 09:51 | 49.90523 | 4.54601 | 32224 ft | 404 kts | 193° |
| 2026-04-15 09:51 | 49.87753 | 4.53868 | 32542 ft | 403 kts | 193° |
| 2026-04-15 09:52 | 49.84986 | 4.53137 | 32848 ft | 403 kts | 193° |
| 2026-04-15 09:52 | 49.82224 | 4.52409 | 33216 ft | 401 kts | 193° |
| 2026-04-15 09:52 | 49.79476 | 4.51686 | 33567 ft | 400 kts | 193° |
| 2026-04-15 09:52 | 49.76738 | 4.50967 | 33908 ft | 398 kts | 193° |
| 2026-04-15 09:53 | 49.74013 | 4.50251 | 34222 ft | 397 kts | 193° |
| 2026-04-15 09:53 | 49.71299 | 4.49538 | 34491 ft | 395 kts | 194° |
| 2026-04-15 09:53 | 49.68588 | 4.48827 | 34741 ft | 394 kts | 194° |
| 2026-04-15 09:53 | 49.65886 | 4.48118 | 34943 ft | 394 kts | 194° |
| 2026-04-15 09:54 | 49.63178 | 4.47407 | 35069 ft | 396 kts | 194° |
| 2026-04-15 09:54 | 49.60459 | 4.46695 | 35195 ft | 397 kts | 194° |
| 2026-04-15 09:54 | 49.55034 | 4.45280 | 35211 ft | 394 kts | 194° |
| 2026-04-15 09:55 | 49.49621 | 4.43870 | 35208 ft | 395 kts | 194° |
| 2026-04-15 09:55 | 49.44193 | 4.42459 | 35208 ft | 395 kts | 194° |
| 2026-04-15 09:56 | 49.38767 | 4.41052 | 35210 ft | 396 kts | 193° |
| 2026-04-15 09:57 | 49.30659 | 4.38956 | 35210 ft | 395 kts | 193° |
| 2026-04-15 09:57 | 49.25232 | 4.37557 | 35206 ft | 396 kts | 193° |
| 2026-04-15 09:58 | 49.19798 | 4.36157 | 35210 ft | 397 kts | 193° |
| 2026-04-15 09:58 | 49.14349 | 4.34759 | 35211 ft | 397 kts | 193° |
| 2026-04-15 09:59 | 49.08904 | 4.33363 | 35210 ft | 397 kts | 193° |
| 2026-04-15 09:59 | 49.03459 | 4.31968 | 35214 ft | 397 kts | 193° |
| 2026-04-15 10:00 | 48.98009 | 4.30576 | 35222 ft | 397 kts | 193° |
| 2026-04-15 10:00 | 48.92555 | 4.29188 | 35232 ft | 397 kts | 193° |
| 2026-04-15 10:01 | 48.87098 | 4.27804 | 35239 ft | 397 kts | 193° |
| 2026-04-15 10:01 | 48.81650 | 4.26424 | 35239 ft | 397 kts | 193° |
| 2026-04-15 10:02 | 48.76198 | 4.25046 | 35238 ft | 397 kts | 193° |
| 2026-04-15 10:02 | 48.70746 | 4.23671 | 35238 ft | 397 kts | 193° |
| 2026-04-15 10:03 | 48.65329 | 4.22308 | 35234 ft | 397 kts | 193° |
| 2026-04-15 10:03 | 48.59876 | 4.20940 | 35230 ft | 397 kts | 193° |
| 2026-04-15 10:04 | 48.54417 | 4.19573 | 35225 ft | 399 kts | 193° |
| 2026-04-15 10:04 | 48.48940 | 4.18205 | 35227 ft | 398 kts | 193° |
| 2026-04-15 10:05 | 48.43467 | 4.16840 | 35232 ft | 398 kts | 193° |
| 2026-04-15 10:05 | 48.37992 | 4.15478 | 35236 ft | 398 kts | 193° |
| 2026-04-15 10:06 | 48.32495 | 4.14111 | 35238 ft | 402 kts | 193° |
| 2026-04-15 10:06 | 48.26980 | 4.12745 | 35238 ft | 401 kts | 193° |
| 2026-04-15 10:07 | 48.21469 | 4.11383 | 35235 ft | 401 kts | 193° |
| 2026-04-15 10:07 | 48.15996 | 4.10033 | 35230 ft | 401 kts | 193° |
| 2026-04-15 10:08 | 48.10474 | 4.08673 | 35226 ft | 403 kts | 193° |
| 2026-04-15 10:08 | 48.04952 | 4.07317 | 35215 ft | 402 kts | 193° |
| 2026-04-15 10:09 | 47.99429 | 4.05963 | 35205 ft | 402 kts | 193° |
| 2026-04-15 10:09 | 47.93904 | 4.04612 | 35196 ft | 402 kts | 193° |
| 2026-04-15 10:10 | 47.88362 | 4.03259 | 35211 ft | 404 kts | 193° |
| 2026-04-15 10:10 | 47.82818 | 4.01909 | 35207 ft | 404 kts | 193° |
| 2026-04-15 10:11 | 47.77271 | 4.00560 | 35205 ft | 404 kts | 193° |
| 2026-04-15 10:11 | 47.71726 | 3.99215 | 35205 ft | 404 kts | 193° |
| 2026-04-15 10:12 | 47.66170 | 3.97871 | 35209 ft | 405 kts | 193° |
| 2026-04-15 10:12 | 47.60615 | 3.96530 | 35204 ft | 404 kts | 193° |
| 2026-04-15 10:13 | 47.55060 | 3.95192 | 35204 ft | 405 kts | 193° |
| 2026-04-15 10:13 | 47.49530 | 3.93861 | 35204 ft | 406 kts | 193° |
| 2026-04-15 10:14 | 47.43942 | 3.92521 | 35208 ft | 406 kts | 193° |
| 2026-04-15 10:14 | 47.38360 | 3.91185 | 35208 ft | 406 kts | 193° |
| 2026-04-15 10:15 | 47.32778 | 3.89851 | 35208 ft | 406 kts | 193° |
| 2026-04-15 10:15 | 47.27182 | 3.88517 | 35209 ft | 408 kts | 193° |
| 2026-04-15 10:16 | 47.21579 | 3.87185 | 35209 ft | 408 kts | 193° |
| 2026-04-15 10:16 | 47.15980 | 3.85856 | 35208 ft | 408 kts | 193° |
| 2026-04-15 10:17 | 47.10377 | 3.84529 | 35206 ft | 408 kts | 193° |
| 2026-04-15 10:17 | 47.04751 | 3.83199 | 35209 ft | 410 kts | 193° |
| 2026-04-15 10:18 | 46.99128 | 3.81874 | 35208 ft | 409 kts | 193° |
| 2026-04-15 10:18 | 46.93497 | 3.80549 | 35208 ft | 409 kts | 193° |
| 2026-04-15 10:19 | 46.87850 | 3.79221 | 35215 ft | 415 kts | 192° |
| 2026-04-15 10:19 | 46.82186 | 3.77894 | 35212 ft | 414 kts | 192° |
| 2026-04-15 10:20 | 46.76504 | 3.76566 | 35213 ft | 414 kts | 192° |
| 2026-04-15 10:20 | 46.70819 | 3.75240 | 35214 ft | 414 kts | 192° |
| 2026-04-15 10:21 | 46.65127 | 3.73915 | 35212 ft | 413 kts | 192° |
| 2026-04-15 10:21 | 46.59441 | 3.72595 | 35214 ft | 413 kts | 192° |
| 2026-04-15 10:22 | 46.53760 | 3.71277 | 35217 ft | 414 kts | 192° |
| 2026-04-15 10:22 | 46.48073 | 3.69961 | 35215 ft | 415 kts | 192° |
| 2026-04-15 10:23 | 46.42364 | 3.68643 | 35217 ft | 415 kts | 192° |
| 2026-04-15 10:23 | 46.36667 | 3.67331 | 35223 ft | 415 kts | 192° |
| 2026-04-15 10:24 | 46.31000 | 3.66029 | 35220 ft | 415 kts | 192° |
| 2026-04-15 10:24 | 46.25286 | 3.64717 | 35231 ft | 416 kts | 192° |
| 2026-04-15 10:25 | 46.19567 | 3.63409 | 35233 ft | 416 kts | 192° |
| 2026-04-15 10:25 | 46.13847 | 3.62102 | 35233 ft | 416 kts | 192° |
| 2026-04-15 10:26 | 46.08128 | 3.60798 | 35231 ft | 418 kts | 192° |
| 2026-04-15 10:26 | 46.02382 | 3.59491 | 35228 ft | 417 kts | 192° |
| 2026-04-15 10:27 | 45.96643 | 3.58189 | 35224 ft | 417 kts | 192° |
| 2026-04-15 10:27 | 45.90907 | 3.56890 | 35216 ft | 417 kts | 192° |
| 2026-04-15 10:28 | 45.85198 | 3.55599 | 35224 ft | 418 kts | 192° |
| 2026-04-15 10:28 | 45.79457 | 3.54304 | 35224 ft | 418 kts | 192° |
| 2026-04-15 10:29 | 45.73711 | 3.53011 | 35223 ft | 418 kts | 192° |
| 2026-04-15 10:29 | 45.67957 | 3.51716 | 35207 ft | 420 kts | 192° |
| 2026-04-15 10:30 | 45.62178 | 3.50423 | 35212 ft | 420 kts | 192° |
| 2026-04-15 10:30 | 45.56410 | 3.49134 | 35207 ft | 420 kts | 192° |
| 2026-04-15 10:31 | 45.50636 | 3.47843 | 35212 ft | 421 kts | 192° |
| 2026-04-15 10:31 | 45.44839 | 3.46552 | 35209 ft | 422 kts | 192° |
| 2026-04-15 10:32 | 45.39042 | 3.45265 | 35208 ft | 421 kts | 192° |
| 2026-04-15 10:32 | 45.33282 | 3.43986 | 35201 ft | 421 kts | 192° |
| 2026-04-15 10:33 | 45.27468 | 3.42698 | 35200 ft | 424 kts | 192° |
| 2026-04-15 10:33 | 45.21645 | 3.41413 | 35205 ft | 423 kts | 192° |
| 2026-04-15 10:34 | 45.15832 | 3.40131 | 35206 ft | 423 kts | 192° |
| 2026-04-15 10:34 | 45.10007 | 3.38849 | 35204 ft | 425 kts | 192° |
| 2026-04-15 10:35 | 45.04166 | 3.37567 | 35205 ft | 424 kts | 192° |
| 2026-04-15 10:35 | 44.98330 | 3.36289 | 35208 ft | 424 kts | 192° |
| 2026-04-15 10:36 | 44.92501 | 3.35015 | 35199 ft | 421 kts | 192° |
| 2026-04-15 10:36 | 44.86753 | 3.33761 | 35196 ft | 421 kts | 192° |
| 2026-04-15 10:37 | 44.80962 | 3.32498 | 35197 ft | 421 kts | 192° |
| 2026-04-15 10:37 | 44.76115 | 3.31445 | 35195 ft | 421 kts | 192° |
| 2026-04-15 10:38 | 44.70364 | 3.30198 | 35191 ft | 421 kts | 192° |
| 2026-04-15 10:38 | 44.64568 | 3.28943 | 35189 ft | 421 kts | 192° |
| 2026-04-15 10:39 | 44.58778 | 3.27693 | 35183 ft | 421 kts | 192° |
| 2026-04-15 10:39 | 44.52979 | 3.26440 | 35179 ft | 423 kts | 192° |
| 2026-04-15 10:40 | 44.47158 | 3.25189 | 35177 ft | 422 kts | 192° |
| 2026-04-15 10:40 | 44.44258 | 3.24570 | 35003 ft | 421 kts | 192° |
| 2026-04-15 10:40 | 44.41354 | 3.23950 | 34506 ft | 423 kts | 192° |
| 2026-04-15 10:40 | 44.38426 | 3.23321 | 33760 ft | 429 kts | 192° |
| 2026-04-15 10:41 | 44.35447 | 3.22679 | 32815 ft | 438 kts | 191° |
| 2026-04-15 10:41 | 44.32441 | 3.22033 | 31896 ft | 446 kts | 191° |
| 2026-04-15 10:41 | 44.29341 | 3.21369 | 30991 ft | 454 kts | 191° |
| 2026-04-15 10:41 | 44.26189 | 3.20695 | 30023 ft | 462 kts | 190° |
| 2026-04-15 10:42 | 44.22987 | 3.20013 | 29011 ft | 468 kts | 190° |
| 2026-04-15 10:42 | 44.19768 | 3.19329 | 28287 ft | 467 kts | 190° |
| 2026-04-15 10:42 | 44.16568 | 3.18649 | 27707 ft | 463 kts | 190° |
| 2026-04-15 10:42 | 44.13393 | 3.17975 | 27133 ft | 459 kts | 190° |
| 2026-04-15 10:43 | 44.10257 | 3.17308 | 26571 ft | 454 kts | 190° |
| 2026-04-15 10:43 | 44.07144 | 3.16647 | 26038 ft | 450 kts | 189° |
| 2026-04-15 10:43 | 44.04064 | 3.15995 | 25528 ft | 446 kts | 189° |
| 2026-04-15 10:43 | 44.01015 | 3.15349 | 25005 ft | 442 kts | 189° |
| 2026-04-15 10:44 | 43.97990 | 3.14709 | 24563 ft | 436 kts | 189° |
| 2026-04-15 10:44 | 43.95020 | 3.14080 | 24470 ft | 434 kts | 189° |
| 2026-04-15 10:44 | 43.91995 | 3.13440 | 24376 ft | 442 kts | 189° |
| 2026-04-15 10:44 | 43.88967 | 3.12801 | 24265 ft | 438 kts | 189° |
| 2026-04-15 10:45 | 43.85968 | 3.12169 | 24182 ft | 436 kts | 189° |
| 2026-04-15 10:45 | 43.82957 | 3.11536 | 24122 ft | 439 kts | 189° |
| 2026-04-15 10:45 | 43.79928 | 3.10899 | 23899 ft | 438 kts | 189° |
| 2026-04-15 10:45 | 43.76927 | 3.10269 | 23659 ft | 435 kts | 189° |
| 2026-04-15 10:46 | 43.73935 | 3.09641 | 23385 ft | 435 kts | 189° |
| 2026-04-15 10:46 | 43.70980 | 3.09023 | 23120 ft | 433 kts | 189° |
| 2026-04-15 10:46 | 43.68005 | 3.08400 | 22849 ft | 431 kts | 189° |
| 2026-04-15 10:46 | 43.65053 | 3.07783 | 22587 ft | 429 kts | 189° |
| 2026-04-15 10:47 | 43.62105 | 3.07167 | 22323 ft | 427 kts | 189° |
| 2026-04-15 10:47 | 43.59171 | 3.06554 | 22067 ft | 426 kts | 189° |
| 2026-04-15 10:47 | 43.56242 | 3.05942 | 21812 ft | 426 kts | 189° |
| 2026-04-15 10:47 | 43.53311 | 3.05332 | 21554 ft | 424 kts | 189° |
| 2026-04-15 10:48 | 43.50401 | 3.04726 | 21290 ft | 420 kts | 189° |
| 2026-04-15 10:48 | 43.47525 | 3.04129 | 21043 ft | 417 kts | 189° |
| 2026-04-15 10:48 | 43.44654 | 3.03532 | 20794 ft | 417 kts | 189° |
| 2026-04-15 10:48 | 43.41789 | 3.02938 | 20548 ft | 415 kts | 189° |
| 2026-04-15 10:49 | 43.38937 | 3.02347 | 20299 ft | 414 kts | 189° |
| 2026-04-15 10:49 | 43.36086 | 3.01756 | 20058 ft | 415 kts | 189° |
| 2026-04-15 10:49 | 43.33235 | 3.01166 | 19816 ft | 414 kts | 189° |
| 2026-04-15 10:49 | 43.30394 | 3.00578 | 19582 ft | 411 kts | 189° |
| 2026-04-15 10:50 | 43.27570 | 2.99995 | 19342 ft | 410 kts | 189° |
| 2026-04-15 10:50 | 43.24757 | 2.99414 | 19109 ft | 408 kts | 189° |
| 2026-04-15 10:50 | 43.21946 | 2.98836 | 18878 ft | 407 kts | 189° |
| 2026-04-15 10:50 | 43.19143 | 2.98260 | 18647 ft | 406 kts | 189° |
| 2026-04-15 10:51 | 43.16347 | 2.97685 | 18417 ft | 408 kts | 189° |
| 2026-04-15 10:51 | 43.13546 | 2.97110 | 18152 ft | 406 kts | 189° |
| 2026-04-15 10:51 | 43.10797 | 2.96545 | 17891 ft | 404 kts | 189° |
| 2026-04-15 10:51 | 43.08017 | 2.95975 | 17630 ft | 403 kts | 189° |
| 2026-04-15 10:52 | 43.05248 | 2.95407 | 17366 ft | 401 kts | 189° |
| 2026-04-15 10:52 | 43.02504 | 2.94845 | 17108 ft | 397 kts | 189° |
| 2026-04-15 10:52 | 42.99783 | 2.94288 | 16853 ft | 395 kts | 189° |
| 2026-04-15 10:52 | 42.97072 | 2.93733 | 16588 ft | 394 kts | 189° |
| 2026-04-15 10:53 | 42.94361 | 2.93178 | 16356 ft | 392 kts | 189° |
| 2026-04-15 10:53 | 42.91674 | 2.92631 | 16105 ft | 389 kts | 189° |
| 2026-04-15 10:53 | 42.89010 | 2.92088 | 15845 ft | 386 kts | 189° |
| 2026-04-15 10:53 | 42.86358 | 2.91548 | 15599 ft | 385 kts | 189° |
| 2026-04-15 10:54 | 42.83701 | 2.91007 | 15352 ft | 386 kts | 189° |
| 2026-04-15 10:54 | 42.81042 | 2.90466 | 15109 ft | 385 kts | 188° |
| 2026-04-15 10:54 | 42.78408 | 2.89931 | 14861 ft | 380 kts | 188° |
| 2026-04-15 10:54 | 42.75812 | 2.89403 | 14634 ft | 377 kts | 188° |
| 2026-04-15 10:55 | 42.73216 | 2.88876 | 14393 ft | 379 kts | 188° |
| 2026-04-15 10:55 | 42.70603 | 2.88346 | 14165 ft | 380 kts | 188° |
| 2026-04-15 10:55 | 42.68028 | 2.87824 | 13931 ft | 377 kts | 188° |
| 2026-04-15 10:55 | 42.65449 | 2.87302 | 13667 ft | 371 kts | 188° |
| 2026-04-15 10:56 | 42.62911 | 2.86790 | 13404 ft | 369 kts | 188° |
| 2026-04-15 10:56 | 42.60359 | 2.86275 | 13144 ft | 373 kts | 188° |
| 2026-04-15 10:56 | 42.57773 | 2.85753 | 12883 ft | 375 kts | 188° |
| 2026-04-15 10:56 | 42.55204 | 2.85234 | 12628 ft | 372 kts | 188° |
| 2026-04-15 10:57 | 42.52664 | 2.84722 | 12372 ft | 367 kts | 188° |
| 2026-04-15 10:57 | 42.47606 | 2.83703 | 11880 ft | 368 kts | 189° |
| 2026-04-15 10:57 | 42.45084 | 2.83196 | 11625 ft | 362 kts | 188° |
| 2026-04-15 10:58 | 42.42637 | 2.82658 | 11443 ft | 351 kts | 191° |
| 2026-04-15 10:58 | 42.40273 | 2.82067 | 11260 ft | 343 kts | 191° |
| 2026-04-15 10:58 | 42.37895 | 2.81459 | 11080 ft | 354 kts | 191° |
| 2026-04-15 10:58 | 42.35474 | 2.80844 | 10901 ft | 350 kts | 191° |
| 2026-04-15 10:59 | 42.33144 | 2.80262 | 10717 ft | 340 kts | 191° |
| 2026-04-15 10:59 | 42.30826 | 2.79689 | 10546 ft | 340 kts | 191° |
| 2026-04-15 10:59 | 42.28505 | 2.79118 | 10483 ft | 336 kts | 191° |
| 2026-04-15 10:59 | 42.26242 | 2.78562 | 10357 ft | 322 kts | 191° |
| 2026-04-15 11:00 | 42.24084 | 2.78035 | 10092 ft | 310 kts | 191° |
| 2026-04-15 11:00 | 42.21974 | 2.77520 | 9611 ft | 304 kts | 191° |
| 2026-04-15 11:00 | 42.19911 | 2.77016 | 9412 ft | 303 kts | 191° |
| 2026-04-15 11:00 | 42.17835 | 2.76507 | 9251 ft | 303 kts | 191° |
| 2026-04-15 11:01 | 42.15768 | 2.76001 | 9081 ft | 300 kts | 191° |
| 2026-04-15 11:01 | 42.13766 | 2.75266 | 8906 ft | 298 kts | 207° |
| 2026-04-15 11:01 | 42.12091 | 2.73681 | 8748 ft | 294 kts | 229° |
| 2026-04-15 11:01 | 42.10737 | 2.71626 | 8592 ft | 293 kts | 232° |
| 2026-04-15 11:02 | 42.09397 | 2.69567 | 8432 ft | 292 kts | 232° |
| 2026-04-15 11:02 | 42.08058 | 2.67519 | 8272 ft | 290 kts | 231° |
| 2026-04-15 11:02 | 42.06740 | 2.65501 | 8182 ft | 284 kts | 231° |
| 2026-04-15 11:02 | 42.05434 | 2.63503 | 8174 ft | 285 kts | 230° |
| 2026-04-15 11:03 | 42.04113 | 2.61492 | 8174 ft | 286 kts | 230° |
| 2026-04-15 11:03 | 42.02792 | 2.59488 | 8177 ft | 287 kts | 230° |
| 2026-04-15 11:03 | 42.01469 | 2.57485 | 8176 ft | 286 kts | 230° |
| 2026-04-15 11:03 | 42.00148 | 2.55484 | 8170 ft | 285 kts | 230° |
| 2026-04-15 11:04 | 41.98844 | 2.53510 | 8175 ft | 286 kts | 230° |
| 2026-04-15 11:04 | 41.97522 | 2.51509 | 8175 ft | 286 kts | 230° |
| 2026-04-15 11:04 | 41.96198 | 2.49506 | 8174 ft | 286 kts | 230° |
| 2026-04-15 11:04 | 41.94875 | 2.47506 | 8173 ft | 286 kts | 231° |
| 2026-04-15 11:05 | 41.93554 | 2.45509 | 8172 ft | 286 kts | 230° |
| 2026-04-15 11:05 | 41.92231 | 2.43510 | 8171 ft | 287 kts | 230° |
| 2026-04-15 11:05 | 41.90905 | 2.41508 | 8174 ft | 287 kts | 230° |
| 2026-04-15 11:05 | 41.89579 | 2.39505 | 8174 ft | 287 kts | 230° |
| 2026-04-15 11:06 | 41.88255 | 2.37508 | 8174 ft | 287 kts | 230° |
| 2026-04-15 11:06 | 41.86926 | 2.35506 | 8170 ft | 287 kts | 230° |
| 2026-04-15 11:06 | 41.85598 | 2.33508 | 8169 ft | 287 kts | 230° |
| 2026-04-15 11:06 | 41.84265 | 2.31507 | 8167 ft | 287 kts | 230° |
| 2026-04-15 11:07 | 41.82937 | 2.29514 | 8171 ft | 285 kts | 230° |
| 2026-04-15 11:07 | 41.81614 | 2.27522 | 8170 ft | 286 kts | 230° |
| 2026-04-15 11:07 | 41.80297 | 2.25538 | 8180 ft | 285 kts | 230° |
| 2026-04-15 11:07 | 41.78972 | 2.23549 | 8173 ft | 286 kts | 230° |
| 2026-04-15 11:08 | 41.77625 | 2.21600 | 8157 ft | 287 kts | 224° |
| 2026-04-15 11:08 | 41.75981 | 2.20130 | 8016 ft | 289 kts | 205° |
| 2026-04-15 11:08 | 41.74076 | 2.19309 | 7855 ft | 288 kts | 196° |
| 2026-04-15 11:08 | 41.72148 | 2.18602 | 7705 ft | 287 kts | 197° |
| 2026-04-15 11:09 | 41.70237 | 2.17888 | 7540 ft | 284 kts | 197° |
| 2026-04-15 11:09 | 41.68334 | 2.17168 | 7412 ft | 284 kts | 197° |
| 2026-04-15 11:09 | 41.66432 | 2.16446 | 7328 ft | 284 kts | 197° |
| 2026-04-15 11:09 | 41.64542 | 2.15724 | 7249 ft | 283 kts | 197° |
| 2026-04-15 11:10 | 41.62647 | 2.15006 | 7164 ft | 283 kts | 197° |
| 2026-04-15 11:10 | 41.60756 | 2.14293 | 7081 ft | 282 kts | 197° |
| 2026-04-15 11:10 | 41.58867 | 2.13581 | 6998 ft | 282 kts | 197° |
| 2026-04-15 11:10 | 41.56980 | 2.12868 | 6917 ft | 281 kts | 197° |
| 2026-04-15 11:11 | 41.55105 | 2.12157 | 6834 ft | 281 kts | 197° |
| 2026-04-15 11:11 | 41.53232 | 2.11402 | 6749 ft | 280 kts | 204° |
| 2026-04-15 11:11 | 41.51638 | 2.09968 | 6672 ft | 276 kts | 228° |
| 2026-04-15 11:11 | 41.50546 | 2.07880 | 6602 ft | 275 kts | 240° |
| 2026-04-15 11:12 | 41.49558 | 2.05698 | 6509 ft | 274 kts | 240° |
| 2026-04-15 11:12 | 41.48572 | 2.03527 | 6426 ft | 273 kts | 240° |
| 2026-04-15 11:12 | 41.47588 | 2.01371 | 6364 ft | 272 kts | 240° |
| 2026-04-15 11:12 | 41.46604 | 1.99217 | 6281 ft | 272 kts | 240° |
| 2026-04-15 11:13 | 41.45631 | 1.97091 | 6199 ft | 272 kts | 240° |
| 2026-04-15 11:13 | 41.44643 | 1.94939 | 6117 ft | 272 kts | 239° |
| 2026-04-15 11:13 | 41.43658 | 1.92797 | 6031 ft | 271 kts | 239° |
| 2026-04-15 11:13 | 41.42676 | 1.90661 | 5953 ft | 270 kts | 240° |
| 2026-04-15 11:14 | 41.41688 | 1.88525 | 5870 ft | 271 kts | 240° |
| 2026-04-15 11:14 | 41.40698 | 1.86378 | 5773 ft | 271 kts | 240° |
| 2026-04-15 11:14 | 41.39712 | 1.84242 | 5700 ft | 271 kts | 240° |
| 2026-04-15 11:14 | 41.38728 | 1.82106 | 5605 ft | 270 kts | 240° |
| 2026-04-15 11:15 | 41.37748 | 1.79983 | 5545 ft | 267 kts | 240° |
| 2026-04-15 11:15 | 41.36791 | 1.77910 | 5472 ft | 258 kts | 240° |
| 2026-04-15 11:15 | 41.35868 | 1.75916 | 5395 ft | 248 kts | 240° |
| 2026-04-15 11:15 | 41.34894 | 1.74074 | 5220 ft | 243 kts | 225° |
| 2026-04-15 11:16 | 41.33442 | 1.73018 | 5071 ft | 237 kts | 192° |
| 2026-04-15 11:16 | 41.31783 | 1.73129 | 5005 ft | 245 kts | 161° |
| 2026-04-15 11:16 | 41.30219 | 1.74016 | 4941 ft | 245 kts | 155° |
| 2026-04-15 11:16 | 41.28711 | 1.74950 | 4848 ft | 240 kts | 162° |
| 2026-04-15 11:17 | 41.27064 | 1.75121 | 4782 ft | 240 kts | 194° |
| 2026-04-15 11:17 | 41.25594 | 1.74158 | 4718 ft | 237 kts | 225° |
| 2026-04-15 11:17 | 41.24675 | 1.72379 | 4654 ft | 234 kts | 246° |
| 2026-04-15 11:17 | 41.24058 | 1.70378 | 4521 ft | 233 kts | 251° |
| 2026-04-15 11:18 | 41.23494 | 1.68374 | 4383 ft | 232 kts | 250° |
| 2026-04-15 11:18 | 41.22898 | 1.66377 | 4253 ft | 233 kts | 249° |
| 2026-04-15 11:18 | 41.22268 | 1.64407 | 4089 ft | 229 kts | 248° |
| 2026-04-15 11:18 | 41.21617 | 1.62464 | 3972 ft | 232 kts | 247° |
| 2026-04-15 11:19 | 41.20952 | 1.60524 | 3835 ft | 230 kts | 246° |
| 2026-04-15 11:19 | 41.20287 | 1.58583 | 3663 ft | 230 kts | 246° |
| 2026-04-15 11:19 | 41.19622 | 1.56663 | 3562 ft | 230 kts | 246° |
| 2026-04-15 11:19 | 41.18845 | 1.54803 | 3404 ft | 230 kts | 229° |
| 2026-04-15 11:20 | 41.17530 | 1.53675 | 3259 ft | 230 kts | 195° |
| 2026-04-15 11:20 | 41.15928 | 1.53656 | 3141 ft | 235 kts | 164° |
| 2026-04-15 11:20 | 41.14425 | 1.54502 | 2993 ft | 235 kts | 151° |
| 2026-04-15 11:20 | 41.13302 | 1.56002 | 2970 ft | 231 kts | 114° |
| 2026-04-15 11:21 | 41.13037 | 1.58082 | 2974 ft | 229 kts | 83° |
| 2026-04-15 11:21 | 41.13385 | 1.60062 | 2964 ft | 212 kts | 69° |
| 2026-04-15 11:21 | 41.13925 | 1.61817 | 2974 ft | 205 kts | 64° |
| 2026-04-15 11:21 | 41.14515 | 1.63528 | 2976 ft | 206 kts | 64° |
| 2026-04-15 11:22 | 41.15110 | 1.65253 | 2975 ft | 206 kts | 64° |
| 2026-04-15 11:22 | 41.15705 | 1.66982 | 2972 ft | 206 kts | 64° |
| 2026-04-15 11:22 | 41.16296 | 1.68705 | 2971 ft | 204 kts | 64° |
| 2026-04-15 11:22 | 41.16878 | 1.70404 | 2976 ft | 201 kts | 64° |
| 2026-04-15 11:23 | 41.17458 | 1.72093 | 2981 ft | 202 kts | 64° |
| 2026-04-15 11:23 | 41.18040 | 1.73790 | 2976 ft | 202 kts | 64° |
| 2026-04-15 11:23 | 41.18621 | 1.75483 | 2971 ft | 199 kts | 64° |
| 2026-04-15 11:23 | 41.19163 | 1.77067 | 2972 ft | 179 kts | 64° |
| 2026-04-15 11:24 | 41.19681 | 1.78576 | 2975 ft | 181 kts | 64° |
| 2026-04-15 11:24 | 41.20203 | 1.80096 | 2975 ft | 180 kts | 64° |
| 2026-04-15 11:24 | 41.20723 | 1.81615 | 2972 ft | 181 kts | 64° |
| 2026-04-15 11:24 | 41.21242 | 1.83129 | 2980 ft | 182 kts | 64° |
| 2026-04-15 11:25 | 41.21765 | 1.84652 | 2972 ft | 181 kts | 64° |
| 2026-04-15 11:25 | 41.22286 | 1.86175 | 2976 ft | 181 kts | 64° |
| 2026-04-15 11:25 | 41.22808 | 1.87699 | 2995 ft | 181 kts | 64° |
| 2026-04-15 11:25 | 41.23330 | 1.89222 | 2946 ft | 182 kts | 64° |
| 2026-04-15 11:26 | 41.23852 | 1.90745 | 2735 ft | 180 kts | 64° |
| 2026-04-15 11:26 | 41.24361 | 1.92231 | 2487 ft | 176 kts | 65° |
| 2026-04-15 11:26 | 41.24837 | 1.93621 | 2256 ft | 156 kts | 64° |
| 2026-04-15 11:26 | 41.25269 | 1.94883 | 2059 ft | 149 kts | 64° |
| 2026-04-15 11:27 | 41.25697 | 1.96134 | 1857 ft | 148 kts | 64° |
| 2026-04-15 11:27 | 41.26123 | 1.97377 | 1665 ft | 147 kts | 65° |
| 2026-04-15 11:27 | 41.26404 | 1.98197 | 1522 ft | 147 kts | 65° |
| 2026-04-15 11:27 | 41.26834 | 1.99452 | 1328 ft | 146 kts | 65° |
| 2026-04-15 11:28 | 41.27250 | 2.00669 | 1130 ft | 147 kts | 66° |
| 2026-04-15 11:28 | 41.27671 | 2.01902 | 954 ft | 146 kts | 66° |
| 2026-04-15 11:28 | 41.28092 | 2.03125 | 750 ft | 145 kts | 66° |
| 2026-04-15 11:28 | 41.28513 | 2.04339 | 501 ft | 144 kts | 67° |
| 2026-04-15 11:29 | 41.28929 | 2.05545 | 291 ft | 143 kts | 68° |
| 2026-04-15 11:29 | 41.29339 | 2.06739 | 114 ft | 142 kts | 68° |
| 2026-04-15 11:29 | 41.29740 | 2.07905 | 18 ft | 130 kts | 68° |
| 2026-04-15 11:29 | 41.30048 | 2.08840 | 18 ft | 88 kts | 65° |
| 2026-04-15 11:30 | 41.30249 | 2.09343 | 15 ft | 34 kts | 49° |
| 2026-04-15 11:30 | 41.30404 | 2.09529 | 17 ft | 9 kts | 13° |
| 2026-04-15 11:30 | 41.30471 | 2.09510 | 18 ft | 12 kts | 335° |
| 2026-04-15 11:30 | 41.30491 | 2.09417 | 18 ft | 1 kts | 239° |